createdAt,value
2022-12-05T00:00:10.737Z,14.23
2022-12-05T00:00:22.584Z,14.82
2022-12-05T00:00:34.458Z,14.85
2022-12-05T00:00:46.263Z,14.40
2022-12-05T00:00:58.437Z,14.57
2022-12-05T00:01:21.761Z,14.82
2022-12-05T00:01:41.006Z,14.73
2022-12-05T00:01:52.840Z,13.93
2022-12-05T00:02:04.729Z,14.63
2022-12-05T00:02:16.666Z,14.63
2022-12-05T00:02:28.885Z,14.20
2022-12-05T00:02:40.716Z,14.23
2022-12-05T00:02:52.548Z,13.88
2022-12-05T00:03:05.582Z,14.02
2022-12-05T00:03:17.375Z,14.07
2022-12-05T00:03:29.281Z,14.70
2022-12-05T00:03:41.064Z,14.77
2022-12-05T00:03:55.897Z,14.40
2022-12-05T00:04:10.745Z,14.45
2022-12-05T00:04:23.016Z,14.70
2022-12-05T00:04:34.867Z,15.13
2022-12-05T00:04:47.174Z,14.95
2022-12-05T00:04:59.033Z,14.50
2022-12-05T00:05:11.765Z,14.50
2022-12-05T00:05:23.575Z,14.45
2022-12-05T00:05:36.655Z,14.18
2022-12-05T00:05:48.614Z,13.48
2022-12-05T00:06:00.396Z,14.05
2022-12-05T00:06:12.318Z,15.02
2022-12-05T00:06:25.540Z,14.48
2022-12-05T00:06:38.481Z,14.05
2022-12-05T00:06:50.330Z,14.32
2022-12-05T00:07:02.109Z,14.23
2022-12-05T00:07:13.939Z,14.05
2022-12-05T00:07:25.831Z,14.30
2022-12-05T00:07:38.219Z,14.68
2022-12-05T00:07:50.159Z,14.85
2022-12-05T00:08:02.084Z,14.77
2022-12-05T00:08:14.009Z,14.50
2022-12-05T00:08:25.940Z,14.23
2022-12-05T00:08:37.795Z,13.55
2022-12-05T00:08:49.976Z,13.23
2022-12-05T00:09:02.350Z,13.70
2022-12-05T00:09:14.669Z,13.90
2022-12-05T00:09:26.508Z,13.60
2022-12-05T00:09:38.457Z,14.00
2022-12-05T00:09:51.000Z,14.10
2022-12-05T00:10:03.421Z,13.95
2022-12-05T00:10:15.907Z,14.27
2022-12-05T00:10:27.723Z,14.27
2022-12-05T00:10:39.805Z,13.68
2022-12-05T00:10:51.678Z,13.80
2022-12-05T00:11:03.537Z,13.93
2022-12-05T00:11:18.149Z,13.60
2022-12-05T00:11:32.024Z,12.75
2022-12-05T00:11:44.731Z,12.30
2022-12-05T00:11:57.760Z,12.77
2022-12-05T00:12:09.741Z,13.20
2022-12-05T00:12:21.605Z,13.70
2022-12-05T00:12:33.515Z,13.57
2022-12-05T00:12:45.380Z,12.75
2022-12-05T00:12:57.194Z,12.55
2022-12-05T00:13:09.129Z,13.07
2022-12-05T00:13:20.929Z,13.15
2022-12-05T00:13:32.723Z,12.88
2022-12-05T00:13:45.685Z,11.90
2022-12-05T00:13:59.034Z,12.18
2022-12-05T00:14:11.225Z,12.88
2022-12-05T00:14:22.983Z,13.32
2022-12-05T00:14:34.836Z,13.38
2022-12-05T00:14:46.586Z,13.15
2022-12-05T00:14:58.393Z,12.92
2022-12-05T00:15:12.567Z,12.25
2022-12-05T00:15:24.427Z,12.85
2022-12-05T00:15:42.000Z,13.32
2022-12-05T00:15:53.740Z,13.00
2022-12-05T00:16:11.315Z,13.60
2022-12-05T00:16:25.091Z,14.73
2022-12-05T00:16:38.934Z,14.73
2022-12-05T00:16:51.007Z,14.05
2022-12-05T00:17:03.049Z,13.23
2022-12-05T00:17:14.877Z,13.55
2022-12-05T00:17:26.714Z,14.20
2022-12-05T00:17:40.793Z,13.80
2022-12-05T00:17:52.582Z,13.52
2022-12-05T00:18:04.800Z,13.32
2022-12-05T00:18:16.620Z,13.43
2022-12-05T00:18:28.443Z,13.55
2022-12-05T00:18:40.362Z,13.40
2022-12-05T00:18:52.339Z,12.93
2022-12-05T00:19:05.788Z,12.55
2022-12-05T00:19:17.674Z,12.55
2022-12-05T00:19:29.461Z,12.85
2022-12-05T00:19:41.295Z,12.68
2022-12-05T00:19:56.753Z,13.02
2022-12-05T00:20:09.773Z,13.27
2022-12-05T00:20:21.604Z,13.82
2022-12-05T00:20:33.490Z,13.85
2022-12-05T00:20:46.706Z,13.44
2022-12-05T00:20:58.598Z,12.93
2022-12-05T00:21:16.784Z,12.93
2022-12-05T00:21:30.931Z,12.50
2022-12-05T00:21:42.998Z,12.93
2022-12-05T00:21:54.887Z,13.70
2022-12-05T00:22:06.777Z,13.13
2022-12-05T00:22:18.633Z,13.02
2022-12-05T00:22:30.425Z,13.00
2022-12-05T00:22:42.301Z,13.07
2022-12-05T00:22:54.189Z,12.85
2022-12-05T00:23:05.975Z,12.85
2022-12-05T00:23:17.860Z,12.98
2022-12-05T00:23:29.944Z,13.40
2022-12-05T00:23:42.094Z,13.40
2022-12-05T00:23:55.100Z,13.50
2022-12-05T00:24:08.729Z,13.95
2022-12-05T00:24:20.780Z,14.27
2022-12-05T00:24:32.590Z,14.00
2022-12-05T00:24:44.475Z,14.48
2022-12-05T00:24:56.270Z,14.45
2022-12-05T00:25:08.795Z,13.32
2022-12-05T00:25:20.772Z,12.75
2022-12-05T00:25:32.581Z,12.57
2022-12-05T00:25:44.357Z,13.15
2022-12-05T00:25:56.238Z,13.50
2022-12-05T00:26:07.981Z,12.75
2022-12-05T00:26:19.872Z,12.07
2022-12-05T00:26:31.873Z,12.25
2022-12-05T00:26:43.851Z,12.30
2022-12-05T00:26:55.862Z,12.27
2022-12-05T00:27:07.695Z,12.18
2022-12-05T00:27:19.492Z,12.07
2022-12-05T00:27:31.349Z,11.63
2022-12-05T00:27:43.172Z,11.15
2022-12-05T00:27:55.026Z,11.40
2022-12-05T00:28:06.866Z,11.38
2022-12-05T00:28:18.788Z,11.60
2022-12-05T00:28:32.476Z,12.23
2022-12-05T00:28:44.673Z,12.07
2022-12-05T00:28:57.207Z,11.65
2022-12-05T00:29:09.178Z,12.10
2022-12-05T00:29:20.969Z,11.93
2022-12-05T00:29:32.727Z,11.75
2022-12-05T00:29:44.699Z,12.07
2022-12-05T00:29:56.691Z,12.32
2022-12-05T00:30:09.167Z,11.75
2022-12-05T00:30:20.970Z,12.20
2022-12-05T00:30:32.830Z,12.15
2022-12-05T00:30:44.593Z,12.38
2022-12-05T00:30:56.553Z,12.10
2022-12-05T00:31:11.168Z,11.23
2022-12-05T00:31:23.945Z,11.65
2022-12-05T00:31:35.829Z,12.40
2022-12-05T00:31:47.652Z,12.82
2022-12-05T00:31:59.557Z,12.55
2022-12-05T00:32:11.468Z,11.85
2022-12-05T00:32:23.381Z,11.73
2022-12-05T00:32:35.285Z,12.27
2022-12-05T00:32:47.105Z,13.25
2022-12-05T00:32:59.102Z,13.85
2022-12-05T00:33:10.944Z,13.77
2022-12-05T00:33:22.827Z,13.07
2022-12-05T00:33:34.655Z,13.27
2022-12-05T00:33:46.585Z,13.38
2022-12-05T00:34:00.920Z,13.30
2022-12-05T00:34:12.880Z,12.98
2022-12-05T00:34:24.775Z,13.55
2022-12-05T00:34:36.555Z,14.48
2022-12-05T00:34:48.448Z,14.73
2022-12-05T00:35:00.327Z,14.63
2022-12-05T00:35:12.155Z,13.73
2022-12-05T00:35:24.222Z,13.75
2022-12-05T00:35:36.297Z,15.77
2022-12-05T00:35:48.152Z,17.80
2022-12-05T00:36:12.435Z,19.02
2022-12-05T00:36:26.856Z,18.92
2022-12-05T00:36:38.732Z,18.92
2022-12-05T00:36:50.641Z,19.40
2022-12-05T00:37:02.489Z,19.38
2022-12-05T00:37:14.367Z,17.95
2022-12-05T00:37:26.229Z,17.13
2022-12-05T00:37:38.049Z,17.58
2022-12-05T00:37:50.302Z,19.00
2022-12-05T00:38:02.107Z,19.35
2022-12-05T00:38:13.881Z,20.23
2022-12-05T00:38:25.718Z,19.67
2022-12-05T00:38:37.881Z,19.10
2022-12-05T00:38:49.941Z,18.83
2022-12-05T00:39:08.611Z,18.55
2022-12-05T00:39:20.406Z,18.40
2022-12-05T00:39:32.585Z,17.75
2022-12-05T00:39:44.376Z,17.90
2022-12-05T00:39:56.511Z,17.25
2022-12-05T00:40:09.210Z,16.77
2022-12-05T00:40:21.015Z,16.45
2022-12-05T00:40:35.698Z,16.13
2022-12-05T00:40:47.452Z,16.33
2022-12-05T00:41:10.098Z,17.00
2022-12-05T00:41:24.763Z,17.70
2022-12-05T00:41:36.790Z,18.67
2022-12-05T00:41:48.619Z,19.58
2022-12-05T00:42:00.445Z,21.33
2022-12-05T00:42:12.235Z,22.63
2022-12-05T00:42:24.072Z,23.85
2022-12-05T00:42:35.853Z,24.60
2022-12-05T00:42:52.096Z,24.48
2022-12-05T00:43:04.213Z,24.10
2022-12-05T00:43:16.016Z,24.45
2022-12-05T00:43:27.893Z,24.13
2022-12-05T00:43:39.893Z,24.45
2022-12-05T00:43:52.064Z,25.02
2022-12-05T00:44:04.404Z,26.58
2022-12-05T00:44:16.240Z,24.20
2022-12-05T00:44:28.085Z,21.80
2022-12-05T00:44:39.984Z,23.77
2022-12-05T00:44:51.927Z,25.70
2022-12-05T00:45:04.233Z,26.15
2022-12-05T00:45:16.105Z,25.55
2022-12-05T00:45:27.891Z,25.95
2022-12-05T00:45:39.804Z,26.75
2022-12-05T00:45:51.677Z,26.20
2022-12-05T00:46:23.093Z,26.10
2022-12-05T00:46:35.399Z,25.95
2022-12-05T00:46:47.355Z,25.75
2022-12-05T00:46:59.305Z,25.27
2022-12-05T00:47:11.116Z,25.55
2022-12-05T00:47:22.993Z,24.92
2022-12-05T00:47:36.491Z,24.00
2022-12-05T00:47:48.282Z,24.63
2022-12-05T00:48:00.021Z,25.38
2022-12-05T00:48:11.891Z,24.95
2022-12-05T00:48:23.706Z,24.35
2022-12-05T00:48:35.650Z,23.23
2022-12-05T00:48:47.747Z,23.25
2022-12-05T00:49:00.394Z,22.92
2022-12-05T00:49:12.893Z,23.60
2022-12-05T00:49:24.754Z,23.77
2022-12-05T00:49:37.007Z,22.95
2022-12-05T00:49:48.743Z,23.50
2022-12-05T00:50:00.805Z,25.67
2022-12-05T00:50:12.687Z,29.52
2022-12-05T00:50:24.444Z,31.08
2022-12-05T00:50:36.239Z,29.60
2022-12-05T00:50:48.124Z,28.05
2022-12-05T00:51:15.083Z,28.25
2022-12-05T00:51:35.970Z,29.02
2022-12-05T00:51:47.725Z,28.92
2022-12-05T00:51:59.586Z,26.85
2022-12-05T00:52:11.546Z,26.85
2022-12-05T00:52:23.585Z,26.15
2022-12-05T00:52:36.396Z,24.40
2022-12-05T00:52:48.331Z,21.85
2022-12-05T00:53:00.229Z,20.23
2022-12-05T00:53:12.156Z,20.98
2022-12-05T00:53:24.616Z,20.38
2022-12-05T00:53:36.660Z,21.67
2022-12-05T00:53:48.601Z,20.95
2022-12-05T00:54:03.036Z,21.50
2022-12-05T00:54:16.123Z,21.40
2022-12-05T00:54:27.980Z,20.15
2022-12-05T00:54:40.006Z,19.02
2022-12-05T00:54:52.125Z,17.63
2022-12-05T00:55:04.347Z,16.40
2022-12-05T00:55:16.205Z,15.68
2022-12-05T00:55:28.205Z,16.00
2022-12-05T00:55:40.002Z,16.30
2022-12-05T00:55:51.946Z,16.48
2022-12-05T00:56:11.719Z,15.60
2022-12-05T00:56:25.115Z,14.98
2022-12-05T00:56:36.951Z,14.88
2022-12-05T00:56:48.750Z,13.68
2022-12-05T00:57:00.605Z,13.85
2022-12-05T00:57:12.372Z,14.02
2022-12-05T00:57:24.249Z,13.50
2022-12-05T00:57:36.093Z,13.88
2022-12-05T00:57:47.867Z,13.35
2022-12-05T00:57:59.730Z,13.52
2022-12-05T00:58:11.562Z,13.75
2022-12-05T00:58:23.417Z,14.10
2022-12-05T00:58:35.241Z,13.55
2022-12-05T00:58:47.525Z,12.95
2022-12-05T00:59:00.440Z,13.00
2022-12-05T00:59:17.524Z,12.52
2022-12-05T00:59:29.318Z,13.07
2022-12-05T00:59:41.161Z,13.35
2022-12-05T00:59:53.071Z,13.65
2022-12-05T01:00:06.426Z,13.30
2022-12-05T01:00:18.955Z,12.90
2022-12-05T01:00:30.736Z,12.60
2022-12-05T01:00:42.533Z,12.88
2022-12-05T01:00:54.342Z,13.52
2022-12-05T01:01:14.163Z,14.45
2022-12-05T01:01:35.061Z,14.05
2022-12-05T01:01:48.042Z,14.48
2022-12-05T01:02:00.841Z,14.73
2022-12-05T01:02:12.829Z,15.15
2022-12-05T01:02:24.645Z,16.52
2022-12-05T01:02:36.596Z,17.67
2022-12-05T01:02:48.659Z,18.08
2022-12-05T01:03:00.755Z,17.40
2022-12-05T01:03:12.580Z,15.82
2022-12-05T01:03:25.508Z,15.18
2022-12-05T01:03:38.124Z,15.88
2022-12-05T01:03:56.746Z,15.60
2022-12-05T01:04:41.042Z,16.95
2022-12-05T01:04:53.905Z,16.52
2022-12-05T01:05:06.310Z,16.25
2022-12-05T01:05:18.308Z,16.95
2022-12-05T01:05:30.750Z,19.15
2022-12-05T01:05:43.189Z,20.30
2022-12-05T01:06:03.194Z,20.25
2022-12-05T01:06:15.948Z,20.75
2022-12-05T01:06:28.062Z,21.23
2022-12-05T01:06:40.749Z,20.17
2022-12-05T01:06:55.913Z,19.50
2022-12-05T01:07:07.839Z,19.67
2022-12-05T01:07:19.711Z,18.85
2022-12-05T01:07:31.557Z,18.33
2022-12-05T01:07:44.426Z,17.85
2022-12-05T01:07:56.402Z,18.17
2022-12-05T01:08:08.599Z,18.90
2022-12-05T01:08:20.725Z,19.13
2022-12-05T01:08:33.739Z,19.27
2022-12-05T01:08:45.590Z,18.38
2022-12-05T01:08:58.658Z,18.13
2022-12-05T01:09:13.442Z,18.85
2022-12-05T01:09:25.881Z,19.52
2022-12-05T01:09:37.694Z,18.83
2022-12-05T01:09:49.485Z,18.73
2022-12-05T01:10:01.271Z,17.92
2022-12-05T01:10:13.454Z,18.20
2022-12-05T01:10:25.375Z,17.48
2022-12-05T01:10:37.466Z,17.75
2022-12-05T01:10:56.161Z,16.90
2022-12-05T01:11:09.259Z,17.95
2022-12-05T01:11:23.500Z,17.33
2022-12-05T01:11:40.994Z,16.85
2022-12-05T01:11:53.460Z,18.02
2022-12-05T01:12:06.045Z,17.92
2022-12-05T01:12:18.684Z,18.08
2022-12-05T01:12:31.847Z,18.80
2022-12-05T01:12:47.568Z,18.67
2022-12-05T01:12:59.580Z,17.90
2022-12-05T01:13:11.766Z,18.05
2022-12-05T01:13:25.096Z,17.42
2022-12-05T01:13:37.307Z,16.13
2022-12-05T01:13:49.249Z,15.93
2022-12-05T01:14:01.055Z,16.77
2022-12-05T01:14:14.076Z,17.40
2022-12-05T01:14:26.488Z,17.58
2022-12-05T01:14:38.271Z,15.98
2022-12-05T01:14:50.114Z,15.68
2022-12-05T01:15:02.031Z,15.73
2022-12-05T01:15:13.879Z,15.35
2022-12-05T01:15:26.034Z,15.00
2022-12-05T01:15:38.086Z,14.48
2022-12-05T01:15:49.906Z,14.02
2022-12-05T01:16:01.925Z,14.68
2022-12-05T01:16:20.067Z,14.98
2022-12-05T01:16:37.840Z,14.27
2022-12-05T01:16:51.761Z,14.88
2022-12-05T01:17:03.796Z,15.45
2022-12-05T01:17:16.468Z,15.07
2022-12-05T01:17:28.432Z,15.13
2022-12-05T01:17:40.328Z,14.68
2022-12-05T01:17:52.459Z,14.02
2022-12-05T01:18:05.484Z,13.63
2022-12-05T01:18:20.051Z,13.45
2022-12-05T01:18:32.220Z,13.63
2022-12-05T01:18:44.236Z,14.80
2022-12-05T01:18:57.197Z,15.77
2022-12-05T01:19:26.544Z,16.70
2022-12-05T01:19:38.507Z,16.92
2022-12-05T01:19:50.380Z,17.98
2022-12-05T01:20:02.215Z,20.52
2022-12-05T01:20:14.783Z,24.88
2022-12-05T01:20:26.737Z,25.25
2022-12-05T01:20:43.263Z,25.13
2022-12-05T01:20:55.304Z,25.60
2022-12-05T01:21:11.598Z,25.27
2022-12-05T01:21:23.836Z,26.90
2022-12-05T01:21:35.686Z,28.10
2022-12-05T01:21:50.490Z,26.83
2022-12-05T01:22:02.572Z,25.38
2022-12-05T01:22:14.470Z,23.70
2022-12-05T01:22:26.312Z,23.48
2022-12-05T01:22:38.435Z,23.13
2022-12-05T01:22:50.329Z,23.08
2022-12-05T01:23:02.415Z,22.88
2022-12-05T01:23:14.578Z,22.63
2022-12-05T01:23:26.553Z,22.92
2022-12-05T01:23:38.447Z,21.92
2022-12-05T01:23:50.451Z,22.33
2022-12-05T01:24:02.391Z,23.77
2022-12-05T01:24:14.724Z,24.10
2022-12-05T01:24:27.102Z,22.88
2022-12-05T01:24:38.879Z,22.20
2022-12-05T01:24:50.772Z,22.00
2022-12-05T01:25:02.994Z,21.55
2022-12-05T01:25:14.832Z,21.90
2022-12-05T01:25:26.745Z,23.02
2022-12-05T01:25:47.612Z,23.35
2022-12-05T01:25:59.385Z,22.25
2022-12-05T01:26:14.405Z,23.92
2022-12-05T01:26:26.197Z,26.98
2022-12-05T01:26:38.179Z,28.85
2022-12-05T01:26:50.104Z,28.45
2022-12-05T01:27:02.229Z,27.60
2022-12-05T01:27:14.322Z,27.35
2022-12-05T01:27:26.177Z,27.00
2022-12-05T01:27:38.200Z,25.75
2022-12-05T01:27:50.018Z,25.10
2022-12-05T01:28:01.942Z,25.15
2022-12-05T01:28:14.525Z,25.23
2022-12-05T01:28:26.374Z,26.17
2022-12-05T01:28:38.735Z,26.92
2022-12-05T01:28:51.260Z,27.95
2022-12-05T01:29:04.010Z,36.67
2022-12-05T01:29:18.479Z,41.92
2022-12-05T01:29:30.520Z,38.90
2022-12-05T01:29:42.368Z,36.40
2022-12-05T01:29:54.528Z,36.25
2022-12-05T01:30:07.435Z,36.88
2022-12-05T01:30:20.262Z,35.72
2022-12-05T01:30:32.160Z,36.67
2022-12-05T01:30:47.091Z,38.03
2022-12-05T01:30:59.066Z,40.47
2022-12-05T01:31:36.153Z,41.22
2022-12-05T01:31:49.845Z,38.63
2022-12-05T01:32:02.006Z,36.70
2022-12-05T01:32:14.222Z,34.25
2022-12-05T01:32:26.147Z,34.30
2022-12-05T01:32:38.120Z,34.75
2022-12-05T01:32:50.008Z,34.40
2022-12-05T01:33:02.018Z,33.28
2022-12-05T01:33:14.064Z,33.25
2022-12-05T01:33:26.338Z,34.20
2022-12-05T01:33:38.400Z,33.10
2022-12-05T01:33:50.806Z,32.45
2022-12-05T01:34:05.350Z,30.67
2022-12-05T01:34:17.991Z,29.98
2022-12-05T01:34:29.934Z,29.23
2022-12-05T01:34:41.899Z,27.40
2022-12-05T01:34:54.725Z,27.52
2022-12-05T01:35:07.169Z,27.24
2022-12-05T01:35:19.109Z,27.60
2022-12-05T01:35:34.885Z,27.73
2022-12-05T01:35:46.792Z,27.52
2022-12-05T01:35:58.803Z,25.92
2022-12-05T01:36:11.745Z,25.63
2022-12-05T01:36:24.415Z,25.85
2022-12-05T01:36:36.442Z,25.64
2022-12-05T01:36:48.329Z,24.73
2022-12-05T01:37:00.202Z,21.88
2022-12-05T01:37:12.221Z,19.90
2022-12-05T01:37:24.102Z,17.60
2022-12-05T01:37:36.073Z,16.92
2022-12-05T01:37:47.982Z,16.17
2022-12-05T01:37:59.913Z,16.38
2022-12-05T01:38:12.429Z,17.13
2022-12-05T01:38:24.277Z,17.00
2022-12-05T01:38:36.208Z,17.55
2022-12-05T01:38:48.231Z,18.27
2022-12-05T01:39:00.274Z,19.05
2022-12-05T01:39:12.588Z,18.65
2022-12-05T01:39:24.748Z,18.13
2022-12-05T01:39:36.676Z,18.65
2022-12-05T01:39:49.563Z,19.00
2022-12-05T01:40:01.545Z,17.98
2022-12-05T01:40:13.541Z,17.65
2022-12-05T01:40:25.684Z,17.80
2022-12-05T01:40:37.936Z,18.35
2022-12-05T01:40:49.884Z,18.40
2022-12-05T01:41:05.768Z,18.42
2022-12-05T01:41:21.278Z,18.30
2022-12-05T01:41:36.876Z,17.80
2022-12-05T01:41:49.873Z,17.50
2022-12-05T01:42:02.019Z,17.65
2022-12-05T01:42:13.959Z,17.65
2022-12-05T01:42:26.463Z,17.92
2022-12-05T01:42:40.119Z,17.30
2022-12-05T01:42:52.134Z,16.48
2022-12-05T01:43:04.516Z,17.10
2022-12-05T01:43:17.863Z,16.42
2022-12-05T01:43:29.785Z,15.27
2022-12-05T01:43:58.874Z,14.27
2022-12-05T01:44:13.668Z,14.00
2022-12-05T01:44:25.459Z,14.45
2022-12-05T01:44:37.240Z,14.63
2022-12-05T01:45:02.700Z,14.00
2022-12-05T01:45:18.277Z,13.77
2022-12-05T01:45:35.772Z,13.63
2022-12-05T01:45:47.876Z,14.07
2022-12-05T01:46:00.851Z,15.00
2022-12-05T01:46:13.028Z,14.80
2022-12-05T01:46:26.097Z,15.23
2022-12-05T01:46:50.523Z,14.48
2022-12-05T01:47:02.427Z,12.52
2022-12-05T01:47:17.790Z,13.00
2022-12-05T01:47:30.995Z,12.63
2022-12-05T01:47:42.932Z,11.80
2022-12-05T01:47:54.862Z,11.85
2022-12-05T01:48:18.516Z,12.00
2022-12-05T01:48:33.403Z,11.52
2022-12-05T01:48:45.404Z,12.27
2022-12-05T01:49:23.033Z,12.80
2022-12-05T01:49:38.260Z,11.35
2022-12-05T01:49:50.170Z,11.45
2022-12-05T01:50:02.166Z,12.13
2022-12-05T01:50:14.050Z,11.73
2022-12-05T01:50:25.891Z,11.02
2022-12-05T01:50:37.754Z,10.02
2022-12-05T01:50:49.675Z,9.98
2022-12-05T01:51:01.826Z,9.68
2022-12-05T01:51:13.725Z,9.75
2022-12-05T01:51:25.713Z,10.35
2022-12-05T01:51:39.681Z,11.10
2022-12-05T01:52:00.663Z,11.80
2022-12-05T01:52:18.385Z,11.18
2022-12-05T01:52:31.388Z,10.50
2022-12-05T01:52:44.077Z,10.35
2022-12-05T01:52:56.325Z,10.02
2022-12-05T01:53:08.208Z,10.13
2022-12-05T01:53:20.111Z,10.63
2022-12-05T01:53:32.402Z,10.80
2022-12-05T01:53:44.891Z,10.48
2022-12-05T01:53:57.603Z,10.35
2022-12-05T01:54:10.025Z,9.93
2022-12-05T01:54:24.909Z,10.40
2022-12-05T01:54:37.716Z,10.75
2022-12-05T01:54:51.412Z,10.60
2022-12-05T01:55:21.361Z,11.05
2022-12-05T01:55:34.534Z,9.63
2022-12-05T01:55:48.037Z,10.63
2022-12-05T01:55:59.914Z,11.02
2022-12-05T01:56:12.062Z,10.82
2022-12-05T01:56:23.889Z,10.07
2022-12-05T01:56:36.838Z,10.23
2022-12-05T01:56:58.945Z,9.60
2022-12-05T01:57:12.019Z,9.80
2022-12-05T01:57:24.733Z,9.98
2022-12-05T01:57:36.849Z,9.75
2022-12-05T01:57:48.749Z,10.07
2022-12-05T01:58:00.933Z,11.07
2022-12-05T01:58:12.827Z,11.32
2022-12-05T01:58:26.211Z,11.10
2022-12-05T01:58:38.857Z,10.23
2022-12-05T01:58:51.250Z,10.23
2022-12-05T01:59:06.154Z,10.07
2022-12-05T01:59:18.371Z,9.88
2022-12-05T01:59:34.584Z,10.73
2022-12-05T01:59:59.248Z,11.32
2022-12-05T02:00:17.899Z,11.73
2022-12-05T02:00:30.092Z,11.38
2022-12-05T02:00:42.033Z,11.73
2022-12-05T02:00:54.399Z,12.18
2022-12-05T02:01:06.803Z,11.73
2022-12-05T02:01:18.972Z,12.27
2022-12-05T02:01:31.064Z,12.05
2022-12-05T02:01:43.031Z,11.93
2022-12-05T02:01:55.200Z,11.90
2022-12-05T02:02:07.227Z,11.95
2022-12-05T02:02:19.472Z,11.10
2022-12-05T02:02:31.531Z,11.98
2022-12-05T02:02:49.201Z,11.85
2022-12-05T02:03:08.044Z,11.13
2022-12-05T02:03:20.204Z,11.38
2022-12-05T02:03:33.013Z,11.02
2022-12-05T02:03:45.266Z,10.60
2022-12-05T02:03:58.185Z,10.43
2022-12-05T02:04:10.083Z,10.30
2022-12-05T02:04:22.033Z,10.60
2022-12-05T02:04:37.853Z,10.50
2022-12-05T02:05:09.345Z,10.77
2022-12-05T02:05:30.037Z,10.30
2022-12-05T02:05:41.978Z,10.88
2022-12-05T02:05:54.719Z,11.07
2022-12-05T02:06:07.612Z,11.68
2022-12-05T02:06:19.368Z,11.10
2022-12-05T02:06:31.986Z,11.35
2022-12-05T02:06:43.857Z,11.70
2022-12-05T02:06:55.828Z,11.00
2022-12-05T02:07:07.996Z,11.02
2022-12-05T02:07:45.782Z,10.90
2022-12-05T02:07:58.705Z,11.48
2022-12-05T02:08:11.212Z,11.38
2022-12-05T02:08:23.525Z,11.35
2022-12-05T02:08:36.393Z,11.27
2022-12-05T02:08:49.254Z,10.85
2022-12-05T02:09:01.334Z,10.48
2022-12-05T02:09:13.464Z,10.57
2022-12-05T02:09:25.653Z,10.27
2022-12-05T02:09:38.241Z,10.65
2022-12-05T02:09:50.155Z,10.88
2022-12-05T02:10:02.090Z,10.77
2022-12-05T02:10:14.477Z,10.50
2022-12-05T02:10:26.660Z,11.52
2022-12-05T02:10:52.583Z,11.40
2022-12-05T02:11:06.766Z,10.00
2022-12-05T02:11:18.596Z,10.10
2022-12-05T02:11:31.517Z,10.27
2022-12-05T02:11:54.102Z,9.82
2022-12-05T02:12:06.262Z,10.55
2022-12-05T02:12:18.879Z,10.68
2022-12-05T02:12:30.721Z,10.90
2022-12-05T02:12:42.867Z,10.93
2022-12-05T02:12:54.950Z,11.38
2022-12-05T02:13:35.623Z,10.55
2022-12-05T02:14:05.903Z,10.05
2022-12-05T02:14:43.366Z,9.85
2022-12-05T02:15:24.011Z,9.75
2022-12-05T02:15:56.792Z,8.95
2022-12-05T02:16:30.639Z,10.15
2022-12-05T02:17:02.795Z,10.48
2022-12-05T02:17:37.549Z,9.80
2022-12-05T02:18:40.488Z,11.10
2022-12-05T02:19:10.780Z,11.10
2022-12-05T02:20:04.624Z,11.52
2022-12-05T02:20:25.519Z,10.93
2022-12-05T02:21:23.570Z,10.90
2022-12-05T02:22:23.629Z,11.05
2022-12-05T02:23:22.377Z,10.07
2022-12-05T02:24:11.169Z,10.55
2022-12-05T02:24:40.508Z,11.48
2022-12-05T02:25:17.804Z,11.18
2022-12-05T02:25:46.734Z,10.32
2022-12-05T02:26:16.472Z,9.05
2022-12-05T02:27:27.022Z,9.73
2022-12-05T02:28:51.042Z,9.68
2022-12-05T02:29:03.087Z,9.10
2022-12-05T02:29:39.737Z,9.30
2022-12-05T02:30:08.374Z,10.20
2022-12-05T02:30:26.691Z,10.13
2022-12-05T02:30:49.654Z,9.40
2022-12-05T02:31:30.517Z,8.95
2022-12-05T02:31:48.517Z,10.00
2022-12-05T02:32:11.116Z,9.63
2022-12-05T02:32:31.474Z,9.35
2022-12-05T02:33:07.767Z,8.80
2022-12-05T02:33:32.597Z,8.80
2022-12-05T02:33:52.941Z,8.60
2022-12-05T02:34:20.458Z,9.48
2022-12-05T02:34:56.488Z,8.70
2022-12-05T02:35:48.836Z,8.80
2022-12-05T02:36:49.339Z,9.55
2022-12-05T02:37:26.496Z,9.45
2022-12-05T02:37:46.970Z,8.63
2022-12-05T02:38:22.657Z,8.55
2022-12-05T02:39:51.995Z,9.10
2022-12-05T02:41:09.631Z,8.80
2022-12-05T02:41:57.864Z,9.15
2022-12-05T02:42:33.519Z,10.13
2022-12-05T02:42:57.038Z,8.92
2022-12-05T02:43:16.608Z,8.43
2022-12-05T02:43:50.953Z,9.00
2022-12-05T02:44:16.299Z,9.13
2022-12-05T02:44:59.060Z,8.73
2022-12-05T02:45:13.626Z,10.02
2022-12-05T02:45:25.902Z,9.73
2022-12-05T02:45:37.784Z,9.88
2022-12-05T02:45:52.995Z,9.45
2022-12-05T02:46:10.264Z,9.40
2022-12-05T02:46:24.309Z,9.50
2022-12-05T02:46:38.267Z,9.25
2022-12-05T02:46:50.109Z,8.85
2022-12-05T02:47:02.024Z,9.02
2022-12-05T02:47:15.381Z,8.73
2022-12-05T02:47:29.281Z,8.77
2022-12-05T02:47:46.795Z,9.02
2022-12-05T02:47:58.752Z,8.50
2022-12-05T02:48:11.214Z,8.35
2022-12-05T02:48:22.983Z,8.38
2022-12-05T02:48:34.873Z,8.68
2022-12-05T02:48:47.017Z,9.30
2022-12-05T02:49:01.795Z,9.23
2022-12-05T02:49:18.496Z,8.82
2022-12-05T02:49:32.785Z,8.82
2022-12-05T02:49:44.704Z,8.70
2022-12-05T02:49:56.982Z,9.02
2022-12-05T02:50:10.529Z,9.38
2022-12-05T02:50:32.629Z,9.02
2022-12-05T02:50:44.524Z,9.18
2022-12-05T02:50:57.867Z,8.70
2022-12-05T02:51:09.761Z,8.27
2022-12-05T02:51:23.762Z,8.35
2022-12-05T02:51:41.410Z,8.85
2022-12-05T02:51:57.204Z,9.70
2022-12-05T02:52:11.103Z,9.65
2022-12-05T02:52:22.899Z,9.18
2022-12-05T02:52:34.786Z,9.38
2022-12-05T02:52:48.631Z,10.02
2022-12-05T02:53:05.767Z,10.05
2022-12-05T02:53:17.721Z,9.40
2022-12-05T02:53:29.457Z,9.40
2022-12-05T02:53:41.321Z,9.27
2022-12-05T02:53:53.302Z,9.57
2022-12-05T02:54:08.417Z,9.27
2022-12-05T02:54:26.772Z,8.93
2022-12-05T02:54:40.248Z,8.40
2022-12-05T02:54:52.831Z,8.75
2022-12-05T02:55:05.255Z,9.38
2022-12-05T02:55:17.566Z,9.27
2022-12-05T02:55:29.456Z,9.05
2022-12-05T02:55:41.739Z,9.10
2022-12-05T02:55:54.051Z,9.00
2022-12-05T02:56:06.315Z,8.80
2022-12-05T02:56:18.274Z,8.38
2022-12-05T02:56:30.828Z,8.77
2022-12-05T02:56:44.678Z,8.82
2022-12-05T02:56:57.212Z,8.63
2022-12-05T02:57:09.617Z,8.88
2022-12-05T02:57:21.464Z,8.68
2022-12-05T02:57:33.357Z,8.52
2022-12-05T02:57:54.550Z,8.95
2022-12-05T02:58:11.395Z,9.27
2022-12-05T02:58:28.051Z,8.63
2022-12-05T02:58:47.332Z,8.35
2022-12-05T02:58:59.233Z,8.63
2022-12-05T02:59:11.158Z,8.38
2022-12-05T02:59:23.680Z,8.57
2022-12-05T02:59:35.835Z,9.18
2022-12-05T02:59:47.764Z,9.10
2022-12-05T02:59:59.892Z,8.65
2022-12-05T03:00:12.607Z,8.57
2022-12-05T03:00:24.491Z,8.26
2022-12-05T03:00:37.181Z,8.55
2022-12-05T03:00:50.869Z,8.48
2022-12-05T03:01:02.930Z,9.30
2022-12-05T03:01:14.823Z,9.50
2022-12-05T03:01:28.983Z,8.85
2022-12-05T03:01:41.132Z,8.63
2022-12-05T03:01:53.120Z,8.65
2022-12-05T03:02:05.501Z,8.80
2022-12-05T03:02:28.557Z,8.52
2022-12-05T03:02:41.113Z,8.55
2022-12-05T03:02:56.570Z,8.65
2022-12-05T03:03:15.451Z,9.05
2022-12-05T03:03:27.363Z,8.57
2022-12-05T03:03:39.251Z,8.07
2022-12-05T03:03:51.242Z,7.95
2022-12-05T03:04:04.697Z,8.63
2022-12-05T03:04:16.869Z,8.82
2022-12-05T03:04:32.189Z,8.70
2022-12-05T03:04:44.149Z,8.60
2022-12-05T03:04:56.251Z,8.70
2022-12-05T03:05:16.597Z,9.25
2022-12-05T03:06:06.872Z,8.52
2022-12-05T03:06:28.827Z,8.07
2022-12-05T03:06:49.657Z,7.88
2022-12-05T03:07:06.754Z,8.75
2022-12-05T03:07:19.335Z,8.55
2022-12-05T03:07:31.118Z,9.07
2022-12-05T03:07:44.296Z,8.77
2022-12-05T03:07:56.932Z,8.30
2022-12-05T03:08:12.015Z,7.78
2022-12-05T03:08:27.538Z,8.73
2022-12-05T03:09:01.200Z,8.95
2022-12-05T03:09:25.223Z,8.18
2022-12-05T03:09:43.997Z,7.90
2022-12-05T03:10:00.765Z,8.18
2022-12-05T03:10:12.807Z,8.10
2022-12-05T03:10:26.073Z,8.05
2022-12-05T03:10:38.399Z,8.18
2022-12-05T03:10:50.367Z,8.27
2022-12-05T03:11:02.375Z,8.40
2022-12-05T03:11:15.093Z,8.73
2022-12-05T03:11:29.407Z,8.85
2022-12-05T03:11:56.341Z,8.27
2022-12-05T03:12:17.103Z,8.90
2022-12-05T03:12:42.518Z,9.30
2022-12-05T03:12:58.511Z,9.10
2022-12-05T03:13:15.177Z,8.35
2022-12-05T03:13:45.017Z,7.85
2022-12-05T03:13:59.063Z,8.38
2022-12-05T03:14:18.262Z,8.30
2022-12-05T03:14:37.725Z,8.27
2022-12-05T03:14:56.609Z,8.02
2022-12-05T03:15:55.258Z,8.00
2022-12-05T03:16:17.416Z,8.50